Eldred, New York
Current Conditions -  °F | °C
As of 1:35 AM on Friday 31 Oct 2014 (Local Time) from KMSV Reporting Station
Clear Clear  
Wind Chill: 30°   Ceiling: Unl
Heat Index: 30°   Visibility: 5mi
Dew Point: 30°   Wind: 3mph
Humidity: 100%   Direction: 330°NNW
Pressure: 30.02"   Gusts: NA
Location:  41.53°N, 74.88°W
Report Text: KMSV 310535Z AUTO 33003KT 5SM CLR M01/M01 A3002 RMK AO1
Loading
Personal Weather Stations






























Interactive Weather Map
Tropical Storm Tracking
New forecast layout! Learn more

10-Day Weather Forecast

Advertisements
Track Severe Weather on mobile